createdAt,value
2017-10-02T00:00:56.689Z,71.90
2017-10-02T00:03:24.962Z,72.20
2017-10-02T00:05:53.992Z,72.30
2017-10-02T00:08:22.262Z,72.30
2017-10-02T00:10:50.906Z,72.20
2017-10-02T00:13:19.590Z,72.30
2017-10-02T00:15:47.835Z,72.30
2017-10-02T00:18:16.114Z,72.40
2017-10-02T00:20:44.355Z,72.40
2017-10-02T00:23:13.334Z,72.10
2017-10-02T00:25:42.406Z,71.70
2017-10-02T00:28:10.613Z,71.70
2017-10-02T00:30:38.872Z,71.80
2017-10-02T00:33:07.910Z,71.30
2017-10-02T00:35:36.202Z,71.30
2017-10-02T00:38:04.495Z,71.00
2017-10-02T00:40:32.745Z,71.00
2017-10-02T00:43:01.033Z,70.90
2017-10-02T00:45:29.250Z,71.00
2017-10-02T00:47:58.262Z,70.60
2017-10-02T00:50:26.526Z,70.60
2017-10-02T00:52:54.843Z,70.70
2017-10-02T00:55:24.018Z,70.80
2017-10-02T00:57:52.295Z,70.30
2017-10-02T01:00:21.313Z,70.80
2017-10-02T01:02:49.917Z,70.70
2017-10-02T01:05:18.178Z,70.90
2017-10-02T01:07:46.411Z,70.60
2017-10-02T01:10:15.469Z,70.70
2017-10-02T01:12:43.742Z,70.70
2017-10-02T01:15:12.021Z,70.60
2017-10-02T01:17:40.281Z,71.40
2017-10-02T01:20:08.556Z,71.20
2017-10-02T01:22:36.805Z,70.90
2017-10-02T01:25:05.077Z,71.00
2017-10-02T01:27:33.306Z,71.40
2017-10-02T01:30:01.553Z,71.80
2017-10-02T01:32:29.823Z,71.30
2017-10-02T01:34:58.072Z,71.20
2017-10-02T01:37:27.104Z,71.40
2017-10-02T01:39:56.105Z,71.10
2017-10-02T01:42:24.346Z,71.70
2017-10-02T01:44:53.441Z,71.40
2017-10-02T01:47:22.470Z,71.80
2017-10-02T01:49:50.769Z,71.80
2017-10-02T01:52:19.070Z,71.90
2017-10-02T01:54:47.306Z,71.60
2017-10-02T01:57:15.582Z,71.60
2017-10-02T01:59:43.811Z,71.30
2017-10-02T02:02:12.055Z,71.50
2017-10-02T02:04:41.118Z,71.70
2017-10-02T02:07:09.386Z,72.30
2017-10-02T02:09:37.651Z,72.00
2017-10-02T02:12:06.669Z,71.90
2017-10-02T02:14:34.933Z,71.90
2017-10-02T02:17:03.221Z,71.60
2017-10-02T02:19:31.490Z,72.00
2017-10-02T02:22:01.085Z,72.70
2017-10-02T02:24:30.118Z,72.40
2017-10-02T02:26:58.384Z,72.40
2017-10-02T02:29:27.398Z,72.50
2017-10-02T02:31:55.638Z,72.50
2017-10-02T02:34:24.680Z,72.90
2017-10-02T02:36:52.907Z,72.80
2017-10-02T02:39:21.937Z,72.60
2017-10-02T02:41:50.170Z,72.60
2017-10-02T02:44:18.423Z,72.80
2017-10-02T02:46:46.713Z,72.80
2017-10-02T02:49:14.965Z,73.00
2017-10-02T02:51:43.221Z,72.90
2017-10-02T02:54:11.445Z,73.30
2017-10-02T02:56:39.718Z,73.30
2017-10-02T02:59:07.968Z,73.50
2017-10-02T03:01:36.247Z,73.80
2017-10-02T03:04:04.497Z,73.90
2017-10-02T03:06:32.760Z,74.30
2017-10-02T03:09:01.025Z,74.50
2017-10-02T03:11:29.306Z,75.00
2017-10-02T03:13:58.362Z,76.50
2017-10-02T03:16:26.587Z,76.50
2017-10-02T03:18:55.855Z,77.40
2017-10-02T03:21:24.146Z,77.40
2017-10-02T03:23:53.162Z,78.00
2017-10-02T03:26:21.426Z,78.00
2017-10-02T03:28:50.446Z,79.40
2017-10-02T03:31:19.551Z,79.80
2017-10-02T03:33:47.805Z,79.80
2017-10-02T03:36:16.824Z,81.40
2017-10-02T03:38:45.052Z,82.10
2017-10-02T03:41:13.337Z,81.80
2017-10-02T03:43:42.337Z,82.70
2017-10-02T03:46:10.695Z,82.70
2017-10-02T03:48:38.910Z,83.30
2017-10-02T03:51:07.203Z,83.70
2017-10-02T03:53:35.429Z,84.80
2017-10-02T03:56:04.426Z,85.60
2017-10-02T03:58:32.745Z,85.10
2017-10-02T04:01:00.980Z,85.00
2017-10-02T04:03:29.226Z,86.00
2017-10-02T04:05:57.461Z,86.10
2017-10-02T04:08:26.474Z,86.90
2017-10-02T04:10:54.729Z,86.90
2017-10-02T04:13:23.002Z,86.90
2017-10-02T04:15:52.026Z,88.00
2017-10-02T04:18:20.284Z,87.90
2017-10-02T04:20:48.529Z,88.00
2017-10-02T04:23:18.170Z,87.60
2017-10-02T04:25:46.431Z,87.30
2017-10-02T04:28:15.436Z,87.90
2017-10-02T04:30:44.450Z,87.70
2017-10-02T04:33:12.737Z,87.70
2017-10-02T04:35:41.068Z,88.00
2017-10-02T04:38:09.290Z,87.90
2017-10-02T04:40:37.535Z,88.30
2017-10-02T04:43:05.795Z,87.90
2017-10-02T04:45:34.028Z,88.50
2017-10-02T04:48:02.324Z,88.50
2017-10-02T04:50:30.587Z,89.00
2017-10-02T04:52:58.806Z,89.10
2017-10-02T04:55:27.866Z,88.90
2017-10-02T04:57:56.114Z,88.90
2017-10-02T05:00:24.351Z,89.00
2017-10-02T05:02:52.626Z,88.80
2017-10-02T05:05:21.659Z,89.10
2017-10-02T05:07:49.910Z,89.10
2017-10-02T05:10:18.991Z,89.20
2017-10-02T05:12:47.190Z,89.20
2017-10-02T05:15:15.466Z,89.50
2017-10-02T05:17:44.510Z,89.30
2017-10-02T05:20:12.902Z,89.30
2017-10-02T05:22:41.121Z,89.20
2017-10-02T05:25:10.157Z,88.90
2017-10-02T05:27:38.394Z,89.40
2017-10-02T05:30:06.646Z,89.40
2017-10-02T05:32:36.484Z,89.40
2017-10-02T05:35:05.485Z,90.00
2017-10-02T05:37:34.566Z,90.00
2017-10-02T05:40:02.817Z,90.00
2017-10-02T05:42:31.857Z,90.20
2017-10-02T05:45:00.090Z,90.10
2017-10-02T05:47:28.369Z,90.20
2017-10-02T05:49:56.617Z,90.20
2017-10-02T05:52:24.857Z,90.10
2017-10-02T05:54:53.135Z,90.10
2017-10-02T05:57:21.378Z,90.00
2017-10-02T05:59:49.627Z,90.00
2017-10-02T06:02:17.883Z,90.10
2017-10-02T06:04:46.125Z,90.10
2017-10-02T06:07:15.180Z,90.20
2017-10-02T06:09:43.456Z,90.20
2017-10-02T06:12:11.698Z,90.00
2017-10-02T06:14:39.987Z,90.20
2017-10-02T06:17:08.858Z,89.90
2017-10-02T06:19:37.882Z,90.10
2017-10-02T06:22:06.202Z,90.40
2017-10-02T06:24:34.580Z,90.20
2017-10-02T06:27:02.781Z,90.20
2017-10-02T06:29:30.998Z,90.40
2017-10-02T06:31:59.282Z,90.40
2017-10-02T06:34:27.486Z,90.80
2017-10-02T06:36:55.764Z,90.70
2017-10-02T06:39:24.003Z,91.00
2017-10-02T06:41:52.533Z,91.10
2017-10-02T06:44:21.552Z,91.60
2017-10-02T06:46:51.502Z,91.60
2017-10-02T06:49:19.814Z,91.60
2017-10-02T06:51:48.137Z,91.60
2017-10-02T06:54:17.135Z,91.30
2017-10-02T06:56:45.401Z,91.30
2017-10-02T06:59:13.652Z,91.30
2017-10-02T07:01:41.957Z,91.40
2017-10-02T07:04:10.734Z,91.40
2017-10-02T07:06:39.763Z,91.40
2017-10-02T07:09:08.004Z,91.40
2017-10-02T07:11:37.021Z,91.40
2017-10-02T07:14:05.289Z,91.40
2017-10-02T07:16:33.546Z,91.30
2017-10-02T07:19:01.829Z,91.30
2017-10-02T07:21:30.869Z,91.50
2017-10-02T07:23:59.487Z,91.50
2017-10-02T07:26:27.714Z,91.60
2017-10-02T07:28:56.022Z,91.60
2017-10-02T07:31:24.364Z,91.60
2017-10-02T07:33:52.692Z,91.80
2017-10-02T07:36:20.930Z,91.80
2017-10-02T07:38:49.183Z,91.70
2017-10-02T07:41:18.814Z,92.00
2017-10-02T07:43:47.066Z,92.10
2017-10-02T07:46:16.050Z,91.90
2017-10-02T07:48:45.081Z,92.10
2017-10-02T07:51:13.335Z,92.10
2017-10-02T07:53:43.139Z,92.00
2017-10-02T07:56:13.067Z,91.90
2017-10-02T07:58:41.378Z,91.90
2017-10-02T08:01:09.695Z,92.00
2017-10-02T08:03:38.973Z,92.00
2017-10-02T08:06:07.230Z,92.00
2017-10-02T08:08:35.634Z,92.10
2017-10-02T08:11:03.908Z,92.10
2017-10-02T08:13:32.178Z,92.10
2017-10-02T08:16:00.430Z,92.10
2017-10-02T08:18:28.692Z,92.20
2017-10-02T08:20:57.420Z,92.40
2017-10-02T08:23:25.653Z,92.30
2017-10-02T08:25:53.970Z,92.30
2017-10-02T08:28:22.248Z,92.40
2017-10-02T08:30:50.530Z,92.50
2017-10-02T08:33:18.761Z,92.50
2017-10-02T08:35:47.029Z,92.70
2017-10-02T08:38:16.062Z,92.40
2017-10-02T08:40:45.065Z,92.40
2017-10-02T08:43:13.507Z,92.40
2017-10-02T08:45:41.716Z,92.30
2017-10-02T08:48:09.968Z,92.50
2017-10-02T08:50:38.238Z,92.70
2017-10-02T08:53:07.354Z,92.80
2017-10-02T08:55:35.612Z,92.60
2017-10-02T08:58:04.611Z,92.80
2017-10-02T09:00:32.914Z,92.70
2017-10-02T09:03:01.193Z,92.90
2017-10-02T09:05:29.419Z,92.70
2017-10-02T09:07:58.457Z,92.90
2017-10-02T09:10:26.714Z,92.90
2017-10-02T09:12:55.270Z,92.70
2017-10-02T09:15:23.550Z,92.90
2017-10-02T09:17:51.875Z,92.60
2017-10-02T09:20:20.113Z,92.50
2017-10-02T09:22:49.115Z,92.50
2017-10-02T09:25:18.151Z,92.40
2017-10-02T09:27:47.164Z,92.60
2017-10-02T09:30:15.394Z,92.50
2017-10-02T09:32:43.667Z,92.30
2017-10-02T09:35:12.659Z,92.10
2017-10-02T09:37:40.935Z,92.10
2017-10-02T09:40:09.974Z,91.90
2017-10-02T09:42:38.260Z,91.90
2017-10-02T09:45:06.534Z,91.80
2017-10-02T09:47:36.204Z,91.70
2017-10-02T09:50:04.493Z,91.70
2017-10-02T09:52:32.815Z,91.80
2017-10-02T09:55:01.073Z,91.90
2017-10-02T09:57:30.297Z,92.10
2017-10-02T09:59:58.537Z,91.30
2017-10-02T10:02:26.791Z,91.80
2017-10-02T10:04:55.807Z,91.30
2017-10-02T10:07:24.062Z,91.30
2017-10-02T10:09:52.374Z,91.60
2017-10-02T10:12:20.608Z,91.60
2017-10-02T10:14:49.811Z,91.20
2017-10-02T10:17:18.067Z,91.20
2017-10-02T10:19:47.071Z,90.90
2017-10-02T10:22:16.129Z,91.00
2017-10-02T10:24:44.839Z,91.00
2017-10-02T10:27:14.585Z,91.00
2017-10-02T10:29:42.920Z,91.00
2017-10-02T10:32:11.166Z,90.80
2017-10-02T10:34:40.324Z,90.70
2017-10-02T10:37:09.374Z,90.90
2017-10-02T10:39:37.672Z,91.00
2017-10-02T10:42:05.916Z,90.70
2017-10-02T10:44:34.237Z,90.90
2017-10-02T10:47:02.514Z,90.70
2017-10-02T10:49:30.761Z,90.40
2017-10-02T10:51:59.043Z,90.50
2017-10-02T10:54:27.335Z,90.40
2017-10-02T10:56:55.578Z,90.50
2017-10-02T10:59:23.915Z,90.40
2017-10-02T11:01:52.933Z,90.40
2017-10-02T11:04:21.235Z,90.40
2017-10-02T11:06:49.469Z,90.30
2017-10-02T11:09:18.476Z,90.30
2017-10-02T11:11:46.770Z,90.30
2017-10-02T11:14:15.012Z,90.20
2017-10-02T11:16:44.074Z,89.60
2017-10-02T11:19:12.339Z,89.60
2017-10-02T11:21:40.616Z,90.00
2017-10-02T11:24:08.903Z,90.60
2017-10-02T11:26:37.150Z,90.10
2017-10-02T11:29:05.465Z,90.20
2017-10-02T11:31:33.723Z,90.00
2017-10-02T11:34:01.975Z,89.00
2017-10-02T11:36:30.266Z,89.50
2017-10-02T11:38:58.511Z,89.30
2017-10-02T11:41:27.548Z,88.70
2017-10-02T11:43:55.850Z,88.60
2017-10-02T11:46:24.188Z,87.60
2017-10-02T11:48:52.493Z,87.80
2017-10-02T11:51:20.695Z,87.00
2017-10-02T11:53:49.707Z,87.00
2017-10-02T11:56:18.713Z,85.50
2017-10-02T11:58:46.975Z,85.50
2017-10-02T12:01:15.268Z,85.50
2017-10-02T12:03:44.390Z,85.80
2017-10-02T12:06:12.657Z,86.20
2017-10-02T12:08:40.929Z,85.90
2017-10-02T12:11:10.008Z,86.00
2017-10-02T12:13:39.381Z,86.00
2017-10-02T12:16:07.654Z,85.90
2017-10-02T12:18:35.934Z,86.00
2017-10-02T12:21:04.275Z,86.00
2017-10-02T12:23:32.516Z,85.30
2017-10-02T12:26:00.827Z,84.60
2017-10-02T12:28:29.088Z,84.30
2017-10-02T12:30:57.354Z,84.10
2017-10-02T12:33:25.758Z,82.20
2017-10-02T12:35:54.050Z,82.30
2017-10-02T12:38:22.321Z,81.20
2017-10-02T12:40:50.585Z,81.30
2017-10-02T12:43:18.911Z,81.60
2017-10-02T12:45:47.164Z,80.00
2017-10-02T12:48:16.097Z,79.90
2017-10-02T12:50:46.018Z,77.80
2017-10-02T12:53:14.304Z,77.80
2017-10-02T12:55:43.437Z,77.00
2017-10-02T12:58:11.899Z,76.90
2017-10-02T13:00:40.935Z,76.00
2017-10-02T13:03:09.192Z,76.00
2017-10-02T13:05:37.515Z,76.80
2017-10-02T13:08:06.325Z,75.60
2017-10-02T13:10:34.615Z,73.70
2017-10-02T13:13:02.897Z,74.50
2017-10-02T13:15:31.173Z,74.30
2017-10-02T13:18:00.175Z,72.50
2017-10-02T13:20:28.462Z,72.00
2017-10-02T13:22:56.712Z,73.20
2017-10-02T13:25:25.035Z,72.30
2017-10-02T13:27:53.439Z,72.90
2017-10-02T13:30:21.696Z,73.60
2017-10-02T13:32:50.764Z,74.10
2017-10-02T13:35:19.056Z,74.00
2017-10-02T13:37:47.339Z,74.10
2017-10-02T13:40:15.594Z,72.70
2017-10-02T13:42:43.901Z,68.60
2017-10-02T13:45:12.131Z,68.60
2017-10-02T13:47:40.395Z,69.60
2017-10-02T13:50:09.408Z,68.10
2017-10-02T13:52:37.695Z,68.10
2017-10-02T13:55:06.018Z,68.10
2017-10-02T13:57:34.322Z,68.90
2017-10-02T14:00:03.376Z,68.50
2017-10-02T14:02:32.436Z,67.80
2017-10-02T14:05:00.793Z,67.70
2017-10-02T14:07:29.822Z,67.40
2017-10-02T14:09:58.126Z,67.40
2017-10-02T14:12:26.386Z,67.60
2017-10-02T14:14:54.657Z,68.40
2017-10-02T14:17:22.972Z,68.30
2017-10-02T14:19:51.303Z,67.10
2017-10-02T14:22:19.585Z,67.80
2017-10-02T14:24:47.854Z,67.00
2017-10-02T14:27:16.125Z,67.50
2017-10-02T14:29:45.164Z,68.70
2017-10-02T14:32:13.431Z,68.70
2017-10-02T14:34:41.700Z,68.30
2017-10-02T14:37:09.969Z,69.00
2017-10-02T14:39:38.310Z,69.30
2017-10-02T14:42:07.521Z,69.80
2017-10-02T14:44:35.791Z,69.80
2017-10-02T14:47:04.069Z,70.20
2017-10-02T14:49:32.328Z,69.90
2017-10-02T14:52:00.616Z,69.70
2017-10-02T14:54:38.886Z,69.00
2017-10-02T14:57:07.158Z,69.80
2017-10-02T14:59:36.207Z,70.60
2017-10-02T15:02:05.275Z,69.90
2017-10-02T15:04:34.188Z,69.80
2017-10-02T15:07:02.464Z,70.30
2017-10-02T15:09:30.771Z,71.00
2017-10-02T15:11:59.150Z,70.50
2017-10-02T15:14:27.422Z,70.60
2017-10-02T15:16:55.784Z,70.70
2017-10-02T15:19:24.108Z,70.10
2017-10-02T15:21:53.188Z,70.50
2017-10-02T15:24:22.203Z,70.70
2017-10-02T15:26:50.669Z,70.70
2017-10-02T15:29:18.943Z,69.00
2017-10-02T15:31:47.249Z,67.50
2017-10-02T15:34:16.281Z,67.60
2017-10-02T15:36:44.829Z,68.10
2017-10-02T15:39:13.062Z,68.00
2017-10-02T15:41:41.334Z,68.00
2017-10-02T15:44:09.588Z,67.90
2017-10-02T15:46:37.878Z,69.20
2017-10-02T15:49:06.150Z,68.70
2017-10-02T15:51:34.414Z,69.10
2017-10-02T15:54:02.733Z,69.00
2017-10-02T15:56:31.005Z,68.80
2017-10-02T15:59:02.387Z,70.50
2017-10-02T16:01:30.636Z,70.40
2017-10-02T16:03:58.899Z,70.00
2017-10-02T16:06:28.035Z,70.00
2017-10-02T16:08:56.307Z,69.90
2017-10-02T16:11:24.627Z,70.00
2017-10-02T16:13:53.448Z,70.00
2017-10-02T16:16:22.500Z,70.70
2017-10-02T16:18:50.782Z,70.70
2017-10-02T16:21:19.014Z,70.50
2017-10-02T16:23:48.048Z,70.50
2017-10-02T16:26:16.345Z,70.50
2017-10-02T16:28:44.618Z,69.80
2017-10-02T16:31:13.063Z,69.60
2017-10-02T16:33:41.446Z,69.60
2017-10-02T16:36:10.609Z,70.40
2017-10-02T16:38:38.925Z,70.30
2017-10-02T16:41:07.228Z,70.90
2017-10-02T16:43:35.594Z,71.20
2017-10-02T16:46:03.972Z,70.90
2017-10-02T16:48:32.247Z,70.50
2017-10-02T16:51:00.575Z,71.00
2017-10-02T16:53:29.611Z,70.80
2017-10-02T16:55:57.890Z,70.80
2017-10-02T16:58:26.198Z,71.40
2017-10-02T17:00:54.866Z,71.10
2017-10-02T17:03:23.150Z,71.40
2017-10-02T17:05:51.406Z,71.60
2017-10-02T17:08:20.068Z,72.20
2017-10-02T17:10:48.389Z,72.30
2017-10-02T17:13:16.660Z,72.10
2017-10-02T17:15:44.933Z,72.30
2017-10-02T17:18:13.206Z,74.10
2017-10-02T17:20:41.499Z,73.30
2017-10-02T17:23:09.756Z,73.20
2017-10-02T17:25:38.060Z,73.50
2017-10-02T17:28:06.278Z,74.90
2017-10-02T17:30:34.563Z,74.10
2017-10-02T17:33:02.832Z,73.70
2017-10-02T17:35:31.070Z,73.60
2017-10-02T17:37:59.344Z,73.80
2017-10-02T17:40:27.754Z,73.40
2017-10-02T17:42:57.523Z,74.80
2017-10-02T17:45:25.901Z,74.80
2017-10-02T17:47:54.246Z,73.80
2017-10-02T17:50:22.509Z,74.50
2017-10-02T17:52:50.798Z,74.80
2017-10-02T17:55:19.831Z,75.00
2017-10-02T17:57:48.111Z,75.00
2017-10-02T18:00:16.363Z,75.00
2017-10-02T18:02:44.663Z,74.20
2017-10-02T18:05:12.954Z,74.60
2017-10-02T18:07:41.276Z,75.50
2017-10-02T18:10:09.632Z,75.70
2017-10-02T18:12:38.844Z,75.80
2017-10-02T18:15:07.873Z,75.10
2017-10-02T18:17:36.303Z,75.00
2017-10-02T18:20:04.619Z,75.20
2017-10-02T18:22:34.558Z,74.80
2017-10-02T18:25:02.854Z,74.80
2017-10-02T18:27:31.164Z,74.80
2017-10-02T18:30:00.266Z,75.60
2017-10-02T18:32:28.569Z,75.70
2017-10-02T18:34:56.857Z,75.70
2017-10-02T18:37:25.162Z,76.30
2017-10-02T18:39:53.452Z,76.50
2017-10-02T18:42:21.897Z,76.80
2017-10-02T18:44:50.245Z,76.50
2017-10-02T18:47:19.534Z,76.30
2017-10-02T18:49:48.753Z,75.80
2017-10-02T18:52:17.426Z,75.80
2017-10-02T18:54:45.700Z,75.80
2017-10-02T18:57:16.329Z,76.50
2017-10-02T18:59:45.010Z,76.50
2017-10-02T19:02:14.169Z,75.60
2017-10-02T19:04:43.358Z,76.00
2017-10-02T19:07:11.645Z,76.30
2017-10-02T19:09:39.985Z,76.50
2017-10-02T19:12:08.348Z,76.10
2017-10-02T19:14:36.608Z,75.80
2017-10-02T19:17:04.868Z,75.50
2017-10-02T19:19:33.393Z,75.80
2017-10-02T19:22:01.668Z,75.80
2017-10-02T19:24:30.263Z,76.00
2017-10-02T19:26:59.283Z,75.90
2017-10-02T19:29:27.584Z,75.90
2017-10-02T19:31:55.884Z,75.60
2017-10-02T19:34:24.179Z,75.50
2017-10-02T19:36:53.549Z,76.20
2017-10-02T19:39:21.851Z,76.20
2017-10-02T19:41:50.894Z,76.10
2017-10-02T19:44:19.191Z,76.10
2017-10-02T19:46:47.444Z,75.80
2017-10-02T19:49:16.590Z,75.60
2017-10-02T19:51:44.856Z,75.60
2017-10-02T19:54:13.158Z,75.80
2017-10-02T19:56:41.467Z,75.60
2017-10-02T19:59:10.468Z,75.40
2017-10-02T20:01:38.949Z,75.40
2017-10-02T20:04:07.260Z,75.60
2017-10-02T20:06:35.592Z,75.60
2017-10-02T20:09:04.048Z,75.40
2017-10-02T20:11:32.312Z,75.40
2017-10-02T20:14:00.643Z,75.40
2017-10-02T20:16:28.909Z,75.20
2017-10-02T20:18:57.232Z,75.60
2017-10-02T20:21:25.521Z,76.70
2017-10-02T20:23:53.827Z,76.80
2017-10-02T20:26:22.864Z,78.30
2017-10-02T20:28:51.150Z,77.80
2017-10-02T20:31:19.392Z,78.60
2017-10-02T20:33:48.583Z,80.10
2017-10-02T20:36:16.845Z,80.10
2017-10-02T20:38:45.134Z,79.90
2017-10-02T20:41:14.191Z,80.10
2017-10-02T20:43:42.463Z,80.10
2017-10-02T20:46:10.765Z,79.80
2017-10-02T20:48:39.005Z,80.30
2017-10-02T20:51:07.338Z,82.20
2017-10-02T20:53:36.402Z,82.30
2017-10-02T20:56:04.727Z,82.20
2017-10-02T20:58:32.995Z,82.10
2017-10-02T21:01:01.272Z,79.60
2017-10-02T21:03:30.345Z,81.20
2017-10-02T21:05:58.622Z,81.20
2017-10-02T21:08:27.733Z,80.20
2017-10-02T21:10:55.992Z,80.20
2017-10-02T21:13:24.285Z,80.10
2017-10-02T21:15:52.529Z,80.60
2017-10-02T21:18:20.842Z,81.30
2017-10-02T21:20:49.148Z,82.20
2017-10-02T21:23:17.429Z,82.40
2017-10-02T21:25:45.732Z,83.40
2017-10-02T21:28:14.326Z,83.70
2017-10-02T21:30:42.651Z,83.80
2017-10-02T21:33:11.641Z,86.20
2017-10-02T21:35:40.649Z,87.60
2017-10-02T21:38:08.917Z,87.50
2017-10-02T21:40:37.939Z,88.40
2017-10-02T21:43:06.205Z,88.40
2017-10-02T21:45:34.457Z,89.80
2017-10-02T21:48:03.948Z,90.60
2017-10-02T21:50:32.178Z,90.60
2017-10-02T21:53:00.432Z,90.90
2017-10-02T21:55:29.808Z,90.90
2017-10-02T21:57:58.051Z,90.90
2017-10-02T22:00:26.352Z,91.30
2017-10-02T22:02:54.603Z,91.70
2017-10-02T22:05:22.941Z,91.50
2017-10-02T22:07:51.231Z,91.10
2017-10-02T22:10:19.480Z,90.70
2017-10-02T22:12:48.479Z,90.60
2017-10-02T22:15:17.505Z,90.50
2017-10-02T22:17:45.767Z,90.50
2017-10-02T22:20:15.144Z,90.80
2017-10-02T22:22:43.427Z,90.80
2017-10-02T22:25:11.698Z,90.40
2017-10-02T22:27:39.962Z,90.60
2017-10-02T22:30:09.034Z,90.90
2017-10-02T22:32:37.462Z,90.70
2017-10-02T22:35:05.678Z,90.90
2017-10-02T22:37:33.937Z,90.50
2017-10-02T22:40:02.228Z,89.60
2017-10-02T22:42:30.455Z,90.50
2017-10-02T22:44:58.720Z,90.50
2017-10-02T22:47:27.580Z,90.80
2017-10-02T22:49:55.865Z,90.60
2017-10-02T22:52:24.132Z,91.40
2017-10-02T22:54:52.450Z,91.10
2017-10-02T22:57:20.791Z,90.70
2017-10-02T22:59:49.077Z,91.00
2017-10-02T23:02:17.356Z,91.60
2017-10-02T23:04:45.635Z,91.50
2017-10-02T23:07:13.928Z,91.30
2017-10-02T23:09:43.086Z,90.70
2017-10-02T23:12:11.466Z,90.70
2017-10-02T23:14:39.758Z,91.10
2017-10-02T23:17:08.034Z,90.60
2017-10-02T23:19:36.619Z,91.00
2017-10-02T23:22:04.867Z,91.20
2017-10-02T23:24:33.144Z,90.70
2017-10-02T23:27:01.410Z,91.10
2017-10-02T23:29:30.443Z,91.80
2017-10-02T23:31:58.679Z,91.70
2017-10-02T23:34:27.720Z,91.60
2017-10-02T23:36:55.989Z,91.90
2017-10-02T23:39:24.268Z,91.70
2017-10-02T23:41:52.491Z,91.80
2017-10-02T23:44:20.752Z,91.60
2017-10-02T23:46:49.026Z,91.60
2017-10-02T23:49:17.278Z,91.60
2017-10-02T23:51:46.279Z,91.40
2017-10-02T23:54:14.551Z,91.10
2017-10-02T23:56:42.818Z,91.20
2017-10-02T23:59:11.054Z,91.50
